sensor_id;sensor_type;location;lat;lon;timestamp;noise_LAeq;noise_LA_min;noise_LA_max;noise_LA01;noise_LA95
67900;Laerm;54700;51.796;10.956;2022-11-20T00:00:15;31.05;27.83;37.20;;
67900;Laerm;54700;51.796;10.956;2022-11-20T00:02:41;31.51;28.27;38.94;;
67900;Laerm;54700;51.796;10.956;2022-11-20T00:05:08;33.07;27.75;42.69;;
67900;Laerm;54700;51.796;10.956;2022-11-20T00:07:35;52.39;29.59;68.50;;
67900;Laerm;54700;51.796;10.956;2022-11-20T00:10:04;33.56;28.14;49.36;;
67900;Laerm;54700;51.796;10.956;2022-11-20T00:12:31;39.52;29.51;53.89;;
67900;Laerm;54700;51.796;10.956;2022-11-20T00:14:58;54.61;29.19;68.36;;
67900;Laerm;54700;51.796;10.956;2022-11-20T00:17:25;57.52;29.92;70.21;;
67900;Laerm;54700;51.796;10.956;2022-11-20T00:19:51;32.32;28.24;42.12;;
67900;Laerm;54700;51.796;10.956;2022-11-20T00:22:18;32.91;28.31;45.78;;
67900;Laerm;54700;51.796;10.956;2022-11-20T00:24:45;54.60;30.57;68.75;;
67900;Laerm;54700;51.796;10.956;2022-11-20T00:27:13;32.97;28.67;45.53;;
67900;Laerm;54700;51.796;10.956;2022-11-20T00:29:40;56.15;28.93;74.48;;
67900;Laerm;54700;51.796;10.956;2022-11-20T00:32:06;56.80;29.37;71.72;;
67900;Laerm;54700;51.796;10.956;2022-11-20T00:34:33;57.93;30.73;71.34;;
67900;Laerm;54700;51.796;10.956;2022-11-20T00:37:00;32.71;28.51;41.30;;
67900;Laerm;54700;51.796;10.956;2022-11-20T00:39:26;54.14;28.18;68.83;;
67900;Laerm;54700;51.796;10.956;2022-11-20T00:41:53;35.26;29.68;42.35;;
67900;Laerm;54700;51.796;10.956;2022-11-20T00:44:21;52.28;30.28;68.86;;
67900;Laerm;54700;51.796;10.956;2022-11-20T00:46:48;56.26;29.24;72.10;;
67900;Laerm;54700;51.796;10.956;2022-11-20T00:49:15;52.09;31.56;69.25;;
67900;Laerm;54700;51.796;10.956;2022-11-20T00:51:41;52.58;29.11;69.85;;
67900;Laerm;54700;51.796;10.956;2022-11-20T00:54:08;32.77;28.43;41.62;;
67900;Laerm;54700;51.796;10.956;2022-11-20T00:56:35;32.91;28.97;41.70;;
67900;Laerm;54700;51.796;10.956;2022-11-20T00:59:02;33.82;29.40;42.50;;
67900;Laerm;54700;51.796;10.956;2022-11-20T01:01:30;55.38;28.15;71.95;;
67900;Laerm;54700;51.796;10.956;2022-11-20T01:03:59;55.22;28.52;69.85;;
67900;Laerm;54700;51.796;10.956;2022-11-20T01:06:27;32.66;28.19;45.31;;
67900;Laerm;54700;51.796;10.956;2022-11-20T01:08:56;29.95;27.74;45.48;;
67900;Laerm;54700;51.796;10.956;2022-11-20T01:11:25;30.57;27.84;35.52;;
67900;Laerm;54700;51.796;10.956;2022-11-20T01:13:53;38.20;27.49;55.05;;
67900;Laerm;54700;51.796;10.956;2022-11-20T01:16:22;50.21;28.05;66.37;;
67900;Laerm;54700;51.796;10.956;2022-11-20T01:18:53;32.53;28.14;39.00;;
67900;Laerm;54700;51.796;10.956;2022-11-20T01:21:22;30.48;27.95;37.42;;
67900;Laerm;54700;51.796;10.956;2022-11-20T01:23:49;51.90;28.24;68.41;;
67900;Laerm;54700;51.796;10.956;2022-11-20T01:26:18;33.72;29.23;43.22;;
67900;Laerm;54700;51.796;10.956;2022-11-20T01:28:46;31.77;28.32;39.98;;
67900;Laerm;54700;51.796;10.956;2022-11-20T01:31:17;53.43;27.83;70.04;;
67900;Laerm;54700;51.796;10.956;2022-11-20T01:33:45;31.73;27.76;41.05;;
67900;Laerm;54700;51.796;10.956;2022-11-20T01:36:14;53.21;27.81;69.12;;
67900;Laerm;54700;51.796;10.956;2022-11-20T01:38:42;34.34;27.92;44.96;;
67900;Laerm;54700;51.796;10.956;2022-11-20T01:41:10;34.62;28.63;44.90;;
67900;Laerm;54700;51.796;10.956;2022-11-20T01:43:57;56.09;28.05;73.82;;
67900;Laerm;54700;51.796;10.956;2022-11-20T01:46:23;33.25;28.58;45.37;;
67900;Laerm;54700;51.796;10.956;2022-11-20T01:48:52;32.34;27.85;43.88;;
67900;Laerm;54700;51.796;10.956;2022-11-20T01:51:26;30.95;27.97;38.63;;
67900;Laerm;54700;51.796;10.956;2022-11-20T01:53:57;33.56;28.18;44.32;;
67900;Laerm;54700;51.796;10.956;2022-11-20T01:56:26;30.08;27.89;36.97;;
67900;Laerm;54700;51.796;10.956;2022-11-20T01:58:58;30.86;27.92;39.66;;
67900;Laerm;54700;51.796;10.956;2022-11-20T02:01:26;29.94;27.73;40.34;;
67900;Laerm;54700;51.796;10.956;2022-11-20T02:03:53;33.26;28.53;42.89;;
67900;Laerm;54700;51.796;10.956;2022-11-20T02:06:24;34.28;28.64;43.98;;
67900;Laerm;54700;51.796;10.956;2022-11-20T02:08:52;32.27;28.41;40.35;;
67900;Laerm;54700;51.796;10.956;2022-11-20T02:11:19;35.50;28.94;45.55;;
67900;Laerm;54700;51.796;10.956;2022-11-20T02:13:46;32.09;28.44;40.14;;
67900;Laerm;54700;51.796;10.956;2022-11-20T02:16:16;53.83;28.22;70.30;;
67900;Laerm;54700;51.796;10.956;2022-11-20T02:18:44;33.22;28.33;46.67;;
67900;Laerm;54700;51.796;10.956;2022-11-20T02:21:18;34.56;27.93;47.38;;
67900;Laerm;54700;51.796;10.956;2022-11-20T02:23:58;33.90;28.70;44.76;;
67900;Laerm;54700;51.796;10.956;2022-11-20T02:26:27;32.59;28.98;39.42;;
67900;Laerm;54700;51.796;10.956;2022-11-20T02:28:54;33.50;28.79;40.12;;
67900;Laerm;54700;51.796;10.956;2022-11-20T02:31:21;29.42;27.96;36.62;;
67900;Laerm;54700;51.796;10.956;2022-11-20T02:33:54;31.36;27.80;41.68;;
67900;Laerm;54700;51.796;10.956;2022-11-20T02:36:21;32.59;27.94;44.28;;
67900;Laerm;54700;51.796;10.956;2022-11-20T02:38:49;28.97;27.74;36.84;;
67900;Laerm;54700;51.796;10.956;2022-11-20T02:41:17;29.76;27.95;38.39;;
67900;Laerm;54700;51.796;10.956;2022-11-20T02:43:44;30.10;27.50;37.11;;
67900;Laerm;54700;51.796;10.956;2022-11-20T02:46:11;30.38;28.07;37.12;;
67900;Laerm;54700;51.796;10.956;2022-11-20T02:48:37;50.05;29.49;66.23;;
67900;Laerm;54700;51.796;10.956;2022-11-20T02:51:04;31.65;27.84;41.20;;
67900;Laerm;54700;51.796;10.956;2022-11-20T02:53:31;31.45;27.95;40.21;;
67900;Laerm;54700;51.796;10.956;2022-11-20T02:55:58;52.53;27.88;70.46;;
67900;Laerm;54700;51.796;10.956;2022-11-20T02:58:26;29.73;27.83;36.65;;
67900;Laerm;54700;51.796;10.956;2022-11-20T03:00:53;32.47;27.91;46.63;;
67900;Laerm;54700;51.796;10.956;2022-11-20T03:03:19;31.87;28.15;46.78;;
67900;Laerm;54700;51.796;10.956;2022-11-20T03:05:46;34.49;28.32;42.66;;
67900;Laerm;54700;51.796;10.956;2022-11-20T03:08:13;53.69;28.23;67.31;;
67900;Laerm;54700;51.796;10.956;2022-11-20T03:10:40;56.07;28.86;72.21;;
67900;Laerm;54700;51.796;10.956;2022-11-20T03:13:06;33.15;28.51;43.98;;
67900;Laerm;54700;51.796;10.956;2022-11-20T03:15:35;54.05;28.03;70.12;;
67900;Laerm;54700;51.796;10.956;2022-11-20T03:18:02;53.60;28.33;70.52;;
67900;Laerm;54700;51.796;10.956;2022-11-20T03:20:29;52.18;28.78;67.42;;
67900;Laerm;54700;51.796;10.956;2022-11-20T03:22:56;50.41;28.69;66.23;;
67900;Laerm;54700;51.796;10.956;2022-11-20T03:25:23;52.17;29.17;69.27;;
67900;Laerm;54700;51.796;10.956;2022-11-20T03:27:49;35.06;28.05;60.06;;
67900;Laerm;54700;51.796;10.956;2022-11-20T03:30:16;32.12;28.13;48.17;;
67900;Laerm;54700;51.796;10.956;2022-11-20T03:32:45;55.35;31.06;68.84;;
67900;Laerm;54700;51.796;10.956;2022-11-20T03:35:12;53.75;29.27;69.97;;
67900;Laerm;54700;51.796;10.956;2022-11-20T03:37:38;33.30;28.81;41.19;;
67900;Laerm;54700;51.796;10.956;2022-11-20T03:40:06;50.28;28.16;65.34;;
67900;Laerm;54700;51.796;10.956;2022-11-20T03:42:33;32.23;28.31;39.78;;
67900;Laerm;54700;51.796;10.956;2022-11-20T03:45:12;53.15;28.26;71.28;;
67900;Laerm;54700;51.796;10.956;2022-11-20T03:47:39;33.61;27.71;42.67;;
67900;Laerm;54700;51.796;10.956;2022-11-20T03:50:09;54.77;29.16;68.16;;
67900;Laerm;54700;51.796;10.956;2022-11-20T03:52:36;36.30;30.12;46.12;;
67900;Laerm;54700;51.796;10.956;2022-11-20T03:55:03;35.07;28.59;45.26;;
67900;Laerm;54700;51.796;10.956;2022-11-20T03:57:30;37.41;29.46;49.55;;
67900;Laerm;54700;51.796;10.956;2022-11-20T03:59:56;33.61;28.39;42.52;;
67900;Laerm;54700;51.796;10.956;2022-11-20T04:02:23;53.16;28.69;71.02;;
67900;Laerm;54700;51.796;10.956;2022-11-20T04:04:50;51.25;28.92;69.35;;
67900;Laerm;54700;51.796;10.956;2022-11-20T04:07:18;32.71;28.46;39.30;;
67900;Laerm;54700;51.796;10.956;2022-11-20T04:09:45;31.86;28.38;38.62;;
67900;Laerm;54700;51.796;10.956;2022-11-20T04:12:11;54.11;28.56;67.41;;
67900;Laerm;54700;51.796;10.956;2022-11-20T04:14:38;37.51;29.22;48.09;;
67900;Laerm;54700;51.796;10.956;2022-11-20T04:17:05;53.64;31.24;69.14;;
67900;Laerm;54700;51.796;10.956;2022-11-20T04:19:32;51.30;28.13;68.16;;
67900;Laerm;54700;51.796;10.956;2022-11-20T04:21:58;56.39;30.99;68.23;;
67900;Laerm;54700;51.796;10.956;2022-11-20T04:24:27;32.80;28.76;41.06;;
67900;Laerm;54700;51.796;10.956;2022-11-20T04:26:54;52.88;30.13;65.88;;
67900;Laerm;54700;51.796;10.956;2022-11-20T04:29:20;34.74;29.93;41.74;;
67900;Laerm;54700;51.796;10.956;2022-11-20T04:31:47;52.16;30.08;68.94;;
67900;Laerm;54700;51.796;10.956;2022-11-20T04:34:14;32.97;28.91;39.21;;
67900;Laerm;54700;51.796;10.956;2022-11-20T04:36:41;35.31;30.72;43.04;;
67900;Laerm;54700;51.796;10.956;2022-11-20T04:39:12;32.76;29.40;38.07;;
67900;Laerm;54700;51.796;10.956;2022-11-20T04:41:41;33.05;28.22;41.66;;
67900;Laerm;54700;51.796;10.956;2022-11-20T04:44:07;32.66;28.87;39.60;;
67900;Laerm;54700;51.796;10.956;2022-11-20T04:46:36;57.78;29.51;72.40;;
67900;Laerm;54700;51.796;10.956;2022-11-20T04:49:03;34.93;28.98;49.48;;
67900;Laerm;54700;51.796;10.956;2022-11-20T04:51:31;33.92;29.63;50.83;;
67900;Laerm;54700;51.796;10.956;2022-11-20T04:53:57;57.69;30.96;70.73;;
67900;Laerm;54700;51.796;10.956;2022-11-20T04:56:24;36.15;29.43;49.54;;
67900;Laerm;54700;51.796;10.956;2022-11-20T04:58:53;33.11;29.31;46.82;;
67900;Laerm;54700;51.796;10.956;2022-11-20T05:01:21;51.95;28.59;68.52;;
67900;Laerm;54700;51.796;10.956;2022-11-20T05:03:48;33.43;29.21;43.24;;
67900;Laerm;54700;51.796;10.956;2022-11-20T05:06:17;32.08;28.97;38.91;;
67900;Laerm;54700;51.796;10.956;2022-11-20T05:08:44;50.52;28.76;66.51;;
67900;Laerm;54700;51.796;10.956;2022-11-20T05:11:13;57.56;29.50;71.61;;
67900;Laerm;54700;51.796;10.956;2022-11-20T05:13:40;45.47;28.77;63.33;;
67900;Laerm;54700;51.796;10.956;2022-11-20T05:16:10;49.82;28.52;65.39;;
67900;Laerm;54700;51.796;10.956;2022-11-20T05:18:37;35.23;30.38;46.64;;
67900;Laerm;54700;51.796;10.956;2022-11-20T05:21:05;51.25;30.90;67.48;;
67900;Laerm;54700;51.796;10.956;2022-11-20T05:23:32;52.09;30.95;67.61;;
67900;Laerm;54700;51.796;10.956;2022-11-20T05:25:59;53.26;28.81;66.41;;
67900;Laerm;54700;51.796;10.956;2022-11-20T05:28:27;31.76;29.16;38.35;;
67900;Laerm;54700;51.796;10.956;2022-11-20T05:30:54;46.49;28.88;61.34;;
67900;Laerm;54700;51.796;10.956;2022-11-20T05:33:22;54.07;30.48;67.61;;
67900;Laerm;54700;51.796;10.956;2022-11-20T05:35:49;55.46;29.22;70.41;;
67900;Laerm;54700;51.796;10.956;2022-11-20T05:38:16;32.14;28.96;41.05;;
67900;Laerm;54700;51.796;10.956;2022-11-20T05:40:43;52.71;28.90;68.84;;
67900;Laerm;54700;51.796;10.956;2022-11-20T05:43:10;53.24;29.59;69.80;;
67900;Laerm;54700;51.796;10.956;2022-11-20T05:45:36;43.75;30.09;60.96;;
67900;Laerm;54700;51.796;10.956;2022-11-20T05:48:03;56.16;28.80;73.13;;
67900;Laerm;54700;51.796;10.956;2022-11-20T05:50:32;34.59;29.15;51.48;;
67900;Laerm;54700;51.796;10.956;2022-11-20T05:52:58;52.72;34.89;69.64;;
67900;Laerm;54700;51.796;10.956;2022-11-20T05:55:26;52.58;33.02;65.91;;
67900;Laerm;54700;51.796;10.956;2022-11-20T05:57:53;54.97;30.46;71.77;;
67900;Laerm;54700;51.796;10.956;2022-11-20T06:00:20;48.90;31.68;64.59;;
67900;Laerm;54700;51.796;10.956;2022-11-20T06:02:47;49.10;29.96;67.00;;
67900;Laerm;54700;51.796;10.956;2022-11-20T06:05:14;57.17;29.22;71.99;;
67900;Laerm;54700;51.796;10.956;2022-11-20T06:07:42;55.12;29.75;69.47;;
67900;Laerm;54700;51.796;10.956;2022-11-20T06:10:09;51.55;29.16;67.21;;
67900;Laerm;54700;51.796;10.956;2022-11-20T06:12:36;50.99;30.21;66.89;;
67900;Laerm;54700;51.796;10.956;2022-11-20T06:15:04;55.30;29.86;69.19;;
67900;Laerm;54700;51.796;10.956;2022-11-20T06:17:31;54.02;31.32;67.92;;
67900;Laerm;54700;51.796;10.956;2022-11-20T06:19:58;33.32;29.60;48.18;;
67900;Laerm;54700;51.796;10.956;2022-11-20T06:22:24;54.83;30.54;69.17;;
67900;Laerm;54700;51.796;10.956;2022-11-20T06:24:52;60.43;31.63;74.96;;
67900;Laerm;54700;51.796;10.956;2022-11-20T06:27:19;36.36;31.55;45.12;;
67900;Laerm;54700;51.796;10.956;2022-11-20T06:29:46;55.78;32.76;70.31;;
67900;Laerm;54700;51.796;10.956;2022-11-20T06:32:13;36.39;30.20;56.75;;
67900;Laerm;54700;51.796;10.956;2022-11-20T06:34:40;48.13;30.39;64.85;;
67900;Laerm;54700;51.796;10.956;2022-11-20T06:37:06;34.77;30.15;44.65;;
67900;Laerm;54700;51.796;10.956;2022-11-20T06:39:33;60.59;30.40;74.91;;
67900;Laerm;54700;51.796;10.956;2022-11-20T06:42:01;58.74;34.86;71.33;;
67900;Laerm;54700;51.796;10.956;2022-11-20T06:44:28;49.97;31.77;64.81;;
67900;Laerm;54700;51.796;10.956;2022-11-20T06:46:55;37.51;29.75;49.10;;
67900;Laerm;54700;51.796;10.956;2022-11-20T06:49:21;58.80;31.49;73.61;;
67900;Laerm;54700;51.796;10.956;2022-11-20T06:51:48;54.80;33.04;70.97;;
67900;Laerm;54700;51.796;10.956;2022-11-20T06:54:15;54.47;30.17;68.75;;
67900;Laerm;54700;51.796;10.956;2022-11-20T06:56:42;58.34;30.98;71.35;;
67900;Laerm;54700;51.796;10.956;2022-11-20T06:59:10;51.57;32.19;69.11;;
67900;Laerm;54700;51.796;10.956;2022-11-20T07:01:36;53.79;32.15;68.24;;
67900;Laerm;54700;51.796;10.956;2022-11-20T07:04:03;54.62;33.83;70.10;;
67900;Laerm;54700;51.796;10.956;2022-11-20T07:06:30;58.53;30.94;72.32;;
67900;Laerm;54700;51.796;10.956;2022-11-20T07:08:57;52.30;32.44;68.77;;
67900;Laerm;54700;51.796;10.956;2022-11-20T07:11:24;57.49;34.18;71.74;;
67900;Laerm;54700;51.796;10.956;2022-11-20T07:13:51;60.94;33.62;75.93;;
67900;Laerm;54700;51.796;10.956;2022-11-20T07:16:19;57.73;32.80;70.19;;
67900;Laerm;54700;51.796;10.956;2022-11-20T07:18:46;58.97;32.54;71.93;;
67900;Laerm;54700;51.796;10.956;2022-11-20T07:21:13;50.82;34.56;67.95;;
67900;Laerm;54700;51.796;10.956;2022-11-20T07:23:40;59.16;33.57;70.56;;
67900;Laerm;54700;51.796;10.956;2022-11-20T07:26:08;54.62;36.35;68.16;;
67900;Laerm;54700;51.796;10.956;2022-11-20T07:28:35;55.81;36.79;71.30;;
67900;Laerm;54700;51.796;10.956;2022-11-20T07:31:02;59.58;35.08;72.04;;
67900;Laerm;54700;51.796;10.956;2022-11-20T07:33:31;52.28;31.20;67.72;;
67900;Laerm;54700;51.796;10.956;2022-11-20T07:35:58;52.29;31.33;68.03;;
67900;Laerm;54700;51.796;10.956;2022-11-20T07:38:25;59.61;33.32;72.79;;
67900;Laerm;54700;51.796;10.956;2022-11-20T07:40:53;60.93;37.35;73.78;;
67900;Laerm;54700;51.796;10.956;2022-11-20T07:43:21;58.18;33.32;71.96;;
67900;Laerm;54700;51.796;10.956;2022-11-20T07:45:47;59.05;31.94;73.30;;
67900;Laerm;54700;51.796;10.956;2022-11-20T07:48:14;62.04;33.45;74.34;;
67900;Laerm;54700;51.796;10.956;2022-11-20T07:50:42;59.08;31.50;71.58;;
67900;Laerm;54700;51.796;10.956;2022-11-20T07:53:09;54.55;30.85;71.13;;
67900;Laerm;54700;51.796;10.956;2022-11-20T07:55:37;54.10;30.38;67.98;;
67900;Laerm;54700;51.796;10.956;2022-11-20T07:58:04;58.02;30.95;72.77;;
67900;Laerm;54700;51.796;10.956;2022-11-20T08:00:31;54.94;29.57;67.70;;
67900;Laerm;54700;51.796;10.956;2022-11-20T08:02:58;58.74;32.74;72.80;;
67900;Laerm;54700;51.796;10.956;2022-11-20T08:05:24;57.71;32.87;68.21;;
67900;Laerm;54700;51.796;10.956;2022-11-20T08:07:53;62.60;37.39;74.20;;
67900;Laerm;54700;51.796;10.956;2022-11-20T08:10:19;57.69;32.51;70.57;;
67900;Laerm;54700;51.796;10.956;2022-11-20T08:12:47;59.95;33.02;74.41;;
67900;Laerm;54700;51.796;10.956;2022-11-20T08:15:31;58.31;33.15;70.82;;
67900;Laerm;54700;51.796;10.956;2022-11-20T08:18:00;57.79;32.68;73.64;;
67900;Laerm;54700;51.796;10.956;2022-11-20T08:20:27;60.73;31.49;74.87;;
67900;Laerm;54700;51.796;10.956;2022-11-20T08:22:59;60.40;37.17;70.96;;
67900;Laerm;54700;51.796;10.956;2022-11-20T08:25:26;60.90;31.49;75.94;;
67900;Laerm;54700;51.796;10.956;2022-11-20T08:27:53;59.05;34.46;70.42;;
67900;Laerm;54700;51.796;10.956;2022-11-20T08:30:20;61.72;33.87;73.20;;
67900;Laerm;54700;51.796;10.956;2022-11-20T08:32:46;60.80;37.15;69.91;;
67900;Laerm;54700;51.796;10.956;2022-11-20T08:35:13;61.13;38.15;71.95;;
67900;Laerm;54700;51.796;10.956;2022-11-20T08:37:40;59.35;31.95;70.74;;
67900;Laerm;54700;51.796;10.956;2022-11-20T08:40:11;63.29;38.24;76.34;;
67900;Laerm;54700;51.796;10.956;2022-11-20T08:42:46;63.70;34.22;73.48;;
67900;Laerm;54700;51.796;10.956;2022-11-20T08:45:13;58.54;33.71;70.24;;
67900;Laerm;54700;51.796;10.956;2022-11-20T08:47:39;61.07;33.75;72.91;;
67900;Laerm;54700;51.796;10.956;2022-11-20T08:50:07;60.23;33.85;72.10;;
67900;Laerm;54700;51.796;10.956;2022-11-20T08:52:34;60.54;35.99;75.79;;
67900;Laerm;54700;51.796;10.956;2022-11-20T08:55:01;58.07;32.79;70.54;;
67900;Laerm;54700;51.796;10.956;2022-11-20T08:57:31;58.88;35.53;72.35;;
67900;Laerm;54700;51.796;10.956;2022-11-20T08:59:57;62.53;33.51;75.47;;
67900;Laerm;54700;51.796;10.956;2022-11-20T09:02:24;59.66;32.94;72.42;;
67900;Laerm;54700;51.796;10.956;2022-11-20T09:04:51;62.84;36.77;72.42;;
67900;Laerm;54700;51.796;10.956;2022-11-20T09:07:18;59.65;32.61;70.73;;
67900;Laerm;54700;51.796;10.956;2022-11-20T09:09:45;60.98;37.58;70.73;;
67900;Laerm;54700;51.796;10.956;2022-11-20T09:12:13;60.55;36.01;71.03;;
67900;Laerm;54700;51.796;10.956;2022-11-20T09:14:41;62.18;32.88;71.52;;
67900;Laerm;54700;51.796;10.956;2022-11-20T09:17:09;59.90;32.74;70.80;;
67900;Laerm;54700;51.796;10.956;2022-11-20T09:19:39;59.47;37.27;70.48;;
67900;Laerm;54700;51.796;10.956;2022-11-20T09:22:06;53.71;33.28;68.63;;
67900;Laerm;54700;51.796;10.956;2022-11-20T09:24:33;62.68;37.36;70.96;;
67900;Laerm;54700;51.796;10.956;2022-11-20T09:27:02;60.60;41.85;72.48;;
67900;Laerm;54700;51.796;10.956;2022-11-20T09:29:29;60.58;33.57;70.53;;
67900;Laerm;54700;51.796;10.956;2022-11-20T09:31:57;61.06;32.70;76.81;;
67900;Laerm;54700;51.796;10.956;2022-11-20T09:34:23;61.30;33.44;72.51;;
67900;Laerm;54700;51.796;10.956;2022-11-20T09:36:50;62.85;36.55;75.87;;
67900;Laerm;54700;51.796;10.956;2022-11-20T09:39:17;58.62;34.92;69.56;;
67900;Laerm;54700;51.796;10.956;2022-11-20T09:41:55;59.47;32.76;68.43;;
67900;Laerm;54700;51.796;10.956;2022-11-20T09:44:38;56.50;32.38;69.00;;
67900;Laerm;54700;51.796;10.956;2022-11-20T09:47:12;61.78;38.71;70.05;;
67900;Laerm;54700;51.796;10.956;2022-11-20T09:49:55;59.14;34.55;70.92;;
67900;Laerm;54700;51.796;10.956;2022-11-20T09:52:32;62.28;36.27;78.15;;
67900;Laerm;54700;51.796;10.956;2022-11-20T09:55:06;62.19;35.93;71.65;;
67900;Laerm;54700;51.796;10.956;2022-11-20T09:57:36;61.47;34.38;69.98;;
67900;Laerm;54700;51.796;10.956;2022-11-20T10:00:08;61.61;34.75;71.46;;
67900;Laerm;54700;51.796;10.956;2022-11-20T10:02:42;60.40;31.77;72.31;;
67900;Laerm;54700;51.796;10.956;2022-11-20T10:05:16;61.81;32.86;71.10;;
67900;Laerm;54700;51.796;10.956;2022-11-20T10:07:48;61.86;33.16;71.72;;
67900;Laerm;54700;51.796;10.956;2022-11-20T10:10:28;59.99;35.02;72.51;;
67900;Laerm;54700;51.796;10.956;2022-11-20T10:13:09;59.19;30.24;71.92;;
67900;Laerm;54700;51.796;10.956;2022-11-20T10:15:44;62.31;32.34;71.86;;
67900;Laerm;54700;51.796;10.956;2022-11-20T10:18:25;60.70;36.56;71.04;;
67900;Laerm;54700;51.796;10.956;2022-11-20T10:20:59;59.62;31.64;73.70;;
67900;Laerm;54700;51.796;10.956;2022-11-20T10:23:45;61.00;40.10;73.41;;
67900;Laerm;54700;51.796;10.956;2022-11-20T10:26:21;60.95;36.50;72.53;;
67900;Laerm;54700;51.796;10.956;2022-11-20T10:28:59;62.74;35.22;74.67;;
67900;Laerm;54700;51.796;10.956;2022-11-20T10:31:31;60.22;32.32;70.59;;
67900;Laerm;54700;51.796;10.956;2022-11-20T10:34:03;61.02;32.98;72.57;;
67900;Laerm;54700;51.796;10.956;2022-11-20T10:36:34;64.11;34.70;80.60;;
67900;Laerm;54700;51.796;10.956;2022-11-20T10:39:15;59.96;34.25;72.89;;
67900;Laerm;54700;51.796;10.956;2022-11-20T10:41:46;62.90;37.13;72.62;;
67900;Laerm;54700;51.796;10.956;2022-11-20T10:44:17;61.08;32.99;70.78;;
67900;Laerm;54700;51.796;10.956;2022-11-20T10:47:13;60.81;33.52;76.19;;
67900;Laerm;54700;51.796;10.956;2022-11-20T10:49:43;62.03;32.73;72.28;;
67900;Laerm;54700;51.796;10.956;2022-11-20T10:52:17;62.12;35.12;72.99;;
67900;Laerm;54700;51.796;10.956;2022-11-20T10:54:53;62.53;37.02;71.01;;
67900;Laerm;54700;51.796;10.956;2022-11-20T10:57:32;61.55;35.50;72.78;;
67900;Laerm;54700;51.796;10.956;2022-11-20T11:00:04;60.86;32.86;71.84;;
67900;Laerm;54700;51.796;10.956;2022-11-20T11:02:34;58.96;32.07;71.16;;
67900;Laerm;54700;51.796;10.956;2022-11-20T11:05:18;60.54;38.53;70.02;;
67900;Laerm;54700;51.796;10.956;2022-11-20T11:07:50;61.67;37.85;71.51;;
67900;Laerm;54700;51.796;10.956;2022-11-20T11:10:22;58.21;32.85;69.51;;
67900;Laerm;54700;51.796;10.956;2022-11-20T11:12:50;57.61;35.22;71.55;;
67900;Laerm;54700;51.796;10.956;2022-11-20T11:15:26;63.13;38.86;72.55;;
67900;Laerm;54700;51.796;10.956;2022-11-20T11:17:54;58.77;33.12;70.68;;
67900;Laerm;54700;51.796;10.956;2022-11-20T11:20:24;58.85;32.41;71.09;;
67900;Laerm;54700;51.796;10.956;2022-11-20T11:22:53;58.23;35.54;70.38;;
67900;Laerm;54700;51.796;10.956;2022-11-20T11:25:27;60.45;33.40;77.29;;
67900;Laerm;54700;51.796;10.956;2022-11-20T11:27:58;62.74;40.84;71.59;;
67900;Laerm;54700;51.796;10.956;2022-11-20T11:30:26;57.27;36.34;69.35;;
67900;Laerm;54700;51.796;10.956;2022-11-20T11:33:04;60.58;43.00;72.55;;
67900;Laerm;54700;51.796;10.956;2022-11-20T11:35:33;61.05;34.96;72.35;;
67900;Laerm;54700;51.796;10.956;2022-11-20T11:38:05;58.73;34.64;68.50;;
67900;Laerm;54700;51.796;10.956;2022-11-20T11:40:35;60.41;33.60;71.19;;
67900;Laerm;54700;51.796;10.956;2022-11-20T11:43:05;59.49;36.63;76.83;;
67900;Laerm;54700;51.796;10.956;2022-11-20T11:45:54;61.64;37.60;70.81;;
67900;Laerm;54700;51.796;10.956;2022-11-20T11:48:20;58.88;38.33;70.33;;
67900;Laerm;54700;51.796;10.956;2022-11-20T11:50:50;56.11;33.27;69.78;;
67900;Laerm;54700;51.796;10.956;2022-11-20T11:53:18;60.45;33.09;74.86;;
67900;Laerm;54700;51.796;10.956;2022-11-20T11:55:49;60.38;32.86;71.14;;
67900;Laerm;54700;51.796;10.956;2022-11-20T11:58:29;60.40;33.37;72.56;;
67900;Laerm;54700;51.796;10.956;2022-11-20T12:01:04;60.49;36.44;70.32;;
67900;Laerm;54700;51.796;10.956;2022-11-20T12:03:35;61.16;32.56;72.40;;
67900;Laerm;54700;51.796;10.956;2022-11-20T12:06:07;62.22;34.19;74.62;;
67900;Laerm;54700;51.796;10.956;2022-11-20T12:08:42;62.99;39.78;72.31;;
67900;Laerm;54700;51.796;10.956;2022-11-20T12:11:15;59.62;38.40;69.90;;
67900;Laerm;54700;51.796;10.956;2022-11-20T12:13:49;59.27;34.58;68.95;;
67900;Laerm;54700;51.796;10.956;2022-11-20T12:16:20;61.43;35.35;71.09;;
67900;Laerm;54700;51.796;10.956;2022-11-20T12:18:49;60.64;34.67;72.27;;
67900;Laerm;54700;51.796;10.956;2022-11-20T12:21:20;59.23;34.36;69.95;;
67900;Laerm;54700;51.796;10.956;2022-11-20T12:24:02;60.57;34.86;71.27;;
67900;Laerm;54700;51.796;10.956;2022-11-20T12:26:45;58.23;33.85;71.19;;
67900;Laerm;54700;51.796;10.956;2022-11-20T12:29:23;59.78;32.54;69.89;;
67900;Laerm;54700;51.796;10.956;2022-11-20T12:32:19;58.62;35.36;70.32;;
67900;Laerm;54700;51.796;10.956;2022-11-20T12:34:58;60.71;34.84;70.45;;
67900;Laerm;54700;51.796;10.956;2022-11-20T12:37:37;58.49;34.95;69.28;;
67900;Laerm;54700;51.796;10.956;2022-11-20T12:40:22;59.39;35.24;69.42;;
67900;Laerm;54700;51.796;10.956;2022-11-20T12:43:02;64.76;35.02;80.55;;
67900;Laerm;54700;51.796;10.956;2022-11-20T12:46:08;57.36;33.41;67.56;;
67900;Laerm;54700;51.796;10.956;2022-11-20T12:48:46;60.76;35.30;72.71;;
67900;Laerm;54700;51.796;10.956;2022-11-20T12:51:40;60.05;35.95;71.72;;
67900;Laerm;54700;51.796;10.956;2022-11-20T12:54:29;57.97;34.67;70.24;;
67900;Laerm;54700;51.796;10.956;2022-11-20T12:57:07;61.01;37.95;70.90;;
67900;Laerm;54700;51.796;10.956;2022-11-20T12:59:49;62.99;36.74;74.89;;
67900;Laerm;54700;51.796;10.956;2022-11-20T13:02:23;61.80;37.05;73.47;;
67900;Laerm;54700;51.796;10.956;2022-11-20T13:05:05;60.59;38.18;71.06;;
67900;Laerm;54700;51.796;10.956;2022-11-20T13:07:36;58.72;38.03;71.68;;
67900;Laerm;54700;51.796;10.956;2022-11-20T13:10:05;58.42;38.50;71.92;;
67900;Laerm;54700;51.796;10.956;2022-11-20T13:12:44;59.81;36.73;70.76;;
67900;Laerm;54700;51.796;10.956;2022-11-20T13:15:19;61.39;41.24;72.19;;
67900;Laerm;54700;51.796;10.956;2022-11-20T13:17:54;60.02;36.34;75.20;;
67900;Laerm;54700;51.796;10.956;2022-11-20T13:20:22;60.78;35.12;71.10;;
67900;Laerm;54700;51.796;10.956;2022-11-20T13:22:49;63.06;39.11;72.33;;
67900;Laerm;54700;51.796;10.956;2022-11-20T13:25:27;60.35;34.16;71.07;;
67900;Laerm;54700;51.796;10.956;2022-11-20T13:27:55;62.66;38.56;72.16;;
67900;Laerm;54700;51.796;10.956;2022-11-20T13:30:23;61.04;40.13;70.09;;
67900;Laerm;54700;51.796;10.956;2022-11-20T13:32:53;61.59;38.05;71.28;;
67900;Laerm;54700;51.796;10.956;2022-11-20T13:35:26;60.31;36.95;71.18;;
67900;Laerm;54700;51.796;10.956;2022-11-20T13:38:04;60.25;36.46;72.90;;
67900;Laerm;54700;51.796;10.956;2022-11-20T13:40:33;60.56;35.53;70.92;;
67900;Laerm;54700;51.796;10.956;2022-11-20T13:43:08;60.94;33.99;70.79;;
67900;Laerm;54700;51.796;10.956;2022-11-20T13:45:37;62.66;39.91;74.32;;